Terminal Aerodrome Forecast
Issued by NWS

Home | Current Version | Previous Version | Text Only | Print | Product List | Glossary On
Versions: 1 2 3 4 5 6 7 8 9 10 11 12 13 14 15
000
FTUS43 KMPX 140500
TAFRWF
TAF
KRWF 140528Z 1406/1506 35015G23KT P6SM FEW035 OVC250
     FM141200 34014G21KT P6SM FEW060 BKN250
     FM141900 33015G22KT P6SM BKN060
     FM150100 32009KT P6SM SCT060=

USA.gov is the U.S. government's official web portal to all federal, state and local government web resources and services.